sensor_id;sensor_type;location;lat;lon;timestamp;pressure;altitude;pressure_sealevel;temperature;humidity
67818;BME280;54614;47.576;7.524;2023-06-04T00:01:43;98325.47;;;27.23;37.96
67818;BME280;54614;47.576;7.524;2023-06-04T00:04:11;98331.22;;;27.26;37.89
67818;BME280;54614;47.576;7.524;2023-06-04T00:06:37;98337.91;;;27.24;37.82
67818;BME280;54614;47.576;7.524;2023-06-04T00:09:03;98328.63;;;27.32;37.78
67818;BME280;54614;47.576;7.524;2023-06-04T00:11:29;98333.69;;;27.28;37.65
67818;BME280;54614;47.576;7.524;2023-06-04T00:13:54;98334.28;;;27.30;37.75
67818;BME280;54614;47.576;7.524;2023-06-04T00:16:20;98329.94;;;27.29;37.61
67818;BME280;54614;47.576;7.524;2023-06-04T00:18:46;98333.69;;;27.28;37.67
67818;BME280;54614;47.576;7.524;2023-06-04T00:21:12;98329.00;;;27.23;37.77
67818;BME280;54614;47.576;7.524;2023-06-04T00:23:37;98330.03;;;27.22;37.80
67818;BME280;54614;47.576;7.524;2023-06-04T00:26:03;98328.75;;;27.25;37.61
67818;BME280;54614;47.576;7.524;2023-06-04T00:28:29;98328.41;;;27.21;37.62
67818;BME280;54614;47.576;7.524;2023-06-04T00:30:55;98332.50;;;27.24;37.50
67818;BME280;54614;47.576;7.524;2023-06-04T00:33:21;98334.16;;;27.25;37.48
67818;BME280;54614;47.576;7.524;2023-06-04T00:35:47;98325.00;;;27.26;37.53
67818;BME280;54614;47.576;7.524;2023-06-04T00:38:12;98328.75;;;27.25;37.54
67818;BME280;54614;47.576;7.524;2023-06-04T00:40:38;98325.47;;;27.23;37.53
67818;BME280;54614;47.576;7.524;2023-06-04T00:43:04;98327.94;;;27.24;37.50
67818;BME280;54614;47.576;7.524;2023-06-04T00:45:31;98329.94;;;27.17;37.70
67818;BME280;54614;47.576;7.524;2023-06-04T00:47:57;98334.63;;;27.22;37.45
67818;BME280;54614;47.576;7.524;2023-06-04T00:50:24;98330.88;;;27.23;37.60
67818;BME280;54614;47.576;7.524;2023-06-04T00:52:51;98336.03;;;27.24;37.25
67818;BME280;54614;47.576;7.524;2023-06-04T00:55:17;98332.50;;;27.24;37.36
67818;BME280;54614;47.576;7.524;2023-06-04T00:57:45;98333.22;;;27.19;37.50
67818;BME280;54614;47.576;7.524;2023-06-04T01:00:12;98337.91;;;27.12;37.58
67818;BME280;54614;47.576;7.524;2023-06-04T01:02:41;98339.31;;;27.15;37.47
67818;BME280;54614;47.576;7.524;2023-06-04T01:05:29;98332.63;;;27.17;37.58
67818;BME280;54614;47.576;7.524;2023-06-04T01:07:59;98338.03;;;27.17;37.43
67818;BME280;54614;47.576;7.524;2023-06-04T01:10:25;98339.22;;;27.21;37.43
67818;BME280;54614;47.576;7.524;2023-06-04T01:12:51;98336.03;;;27.13;37.37
67818;BME280;54614;47.576;7.524;2023-06-04T01:15:17;98342.38;;;27.18;37.56
67818;BME280;54614;47.576;7.524;2023-06-04T01:17:49;98342.03;;;27.15;37.40
67818;BME280;54614;47.576;7.524;2023-06-04T01:20:43;98347.66;;;27.13;37.46
67818;BME280;54614;47.576;7.524;2023-06-04T01:26:00;98346.25;;;27.11;37.56
67818;BME280;54614;47.576;7.524;2023-06-04T01:28:30;98345.78;;;27.14;37.49
67818;BME280;54614;47.576;7.524;2023-06-04T01:30:57;98342.72;;;27.10;37.54
67818;BME280;54614;47.576;7.524;2023-06-04T01:33:25;98344.34;;;27.00;37.60
67818;BME280;54614;47.576;7.524;2023-06-04T01:35:51;98340.25;;;27.09;37.63
67818;BME280;54614;47.576;7.524;2023-06-04T01:38:18;98338.03;;;27.06;37.51
67818;BME280;54614;47.576;7.524;2023-06-04T01:40:44;98344.25;;;27.06;37.35
67818;BME280;54614;47.576;7.524;2023-06-04T01:43:10;98338.63;;;27.08;37.59
67818;BME280;54614;47.576;7.524;2023-06-04T01:45:36;98338.03;;;27.06;37.42
67818;BME280;54614;47.576;7.524;2023-06-04T01:48:04;98341.91;;;27.10;37.49
67818;BME280;54614;47.576;7.524;2023-06-04T01:50:31;98347.53;;;27.08;37.58
67818;BME280;54614;47.576;7.524;2023-06-04T01:52:57;98345.88;;;27.07;37.36
67818;BME280;54614;47.576;7.524;2023-06-04T01:55:22;98354.00;;;27.07;37.27
67818;BME280;54614;47.576;7.524;2023-06-04T01:57:51;98352.34;;;27.06;37.34
67818;BME280;54614;47.576;7.524;2023-06-04T02:00:17;98351.16;;;27.02;37.50
67818;BME280;54614;47.576;7.524;2023-06-04T02:02:45;98352.00;;;27.03;37.75
67818;BME280;54614;47.576;7.524;2023-06-04T02:05:12;98350.34;;;27.02;37.50
67818;BME280;54614;47.576;7.524;2023-06-04T02:07:40;98355.88;;;27.07;37.33
67818;BME280;54614;47.576;7.524;2023-06-04T02:10:17;98357.63;;;27.01;37.29
67818;BME280;54614;47.576;7.524;2023-06-04T02:12:58;98347.50;;;26.96;37.52
67818;BME280;54614;47.576;7.524;2023-06-04T02:15:26;98350.34;;;27.02;37.41
67818;BME280;54614;47.576;7.524;2023-06-04T02:18:10;98351.41;;;27.01;37.43
67818;BME280;54614;47.576;7.524;2023-06-04T02:20:43;98354.09;;;27.01;37.47
67818;BME280;54614;47.576;7.524;2023-06-04T02:23:10;98351.41;;;27.01;37.46
67818;BME280;54614;47.576;7.524;2023-06-04T02:25:36;98357.25;;;26.98;37.44
67818;BME280;54614;47.576;7.524;2023-06-04T02:28:02;98356.66;;;26.95;37.38
67818;BME280;54614;47.576;7.524;2023-06-04T02:30:28;98363.03;;;27.01;37.58
67818;BME280;54614;47.576;7.524;2023-06-04T02:32:53;98367.69;;;26.94;37.58
67818;BME280;54614;47.576;7.524;2023-06-04T02:35:21;98364.66;;;27.02;37.40
67818;BME280;54614;47.576;7.524;2023-06-04T02:37:49;98360.56;;;27.00;37.30
67818;BME280;54614;47.576;7.524;2023-06-04T02:40:15;98359.34;;;26.95;37.31
67818;BME280;54614;47.576;7.524;2023-06-04T02:42:41;98363.59;;;27.03;37.29
67818;BME280;54614;47.576;7.524;2023-06-04T02:45:08;98362.19;;;27.01;37.34
67818;BME280;54614;47.576;7.524;2023-06-04T02:47:34;98364.53;;;26.97;37.47
67818;BME280;54614;47.576;7.524;2023-06-04T02:49:59;98362.19;;;27.01;37.26
67818;BME280;54614;47.576;7.524;2023-06-04T02:52:25;98368.66;;;27.00;37.45
67818;BME280;54614;47.576;7.524;2023-06-04T02:54:51;98375.53;;;26.95;37.42
67818;BME280;54614;47.576;7.524;2023-06-04T02:57:17;98369.72;;;26.99;37.26
67818;BME280;54614;47.576;7.524;2023-06-04T02:59:43;98370.75;;;26.98;37.14
67818;BME280;54614;47.576;7.524;2023-06-04T03:02:09;98370.97;;;26.96;37.34
67818;BME280;54614;47.576;7.524;2023-06-04T03:04:35;98369.09;;;26.96;37.16
67818;BME280;54614;47.576;7.524;2023-06-04T03:07:02;98376.59;;;26.94;37.26
67818;BME280;54614;47.576;7.524;2023-06-04T03:09:30;98373.91;;;26.94;37.31
67818;BME280;54614;47.576;7.524;2023-06-04T03:12:03;98379.06;;;26.96;37.32
67818;BME280;54614;47.576;7.524;2023-06-04T03:14:30;98382.00;;;26.94;37.33
67818;BME280;54614;47.576;7.524;2023-06-04T03:17:02;98377.41;;;26.95;37.33
67818;BME280;54614;47.576;7.524;2023-06-04T03:19:37;98387.63;;;26.93;37.13
67818;BME280;54614;47.576;7.524;2023-06-04T03:22:05;98383.44;;;26.97;37.38
67818;BME280;54614;47.576;7.524;2023-06-04T03:24:39;98391.84;;;26.89;37.34
67818;BME280;54614;47.576;7.524;2023-06-04T03:27:07;98392.66;;;26.89;37.33
67818;BME280;54614;47.576;7.524;2023-06-04T03:29:34;98393.03;;;26.93;37.34
67818;BME280;54614;47.576;7.524;2023-06-04T03:32:01;98390.44;;;26.86;37.39
67818;BME280;54614;47.576;7.524;2023-06-04T03:34:27;98395.72;;;26.93;37.23
67818;BME280;54614;47.576;7.524;2023-06-04T03:36:56;98402.75;;;26.94;37.06
67818;BME280;54614;47.576;7.524;2023-06-04T03:39:22;98392.78;;;26.94;37.04
67818;BME280;54614;47.576;7.524;2023-06-04T03:41:48;98398.19;;;26.94;37.05
67818;BME280;54614;47.576;7.524;2023-06-04T03:44:17;98403.59;;;26.94;37.19
67818;BME280;54614;47.576;7.524;2023-06-04T03:46:45;98402.41;;;26.90;37.38
67818;BME280;54614;47.576;7.524;2023-06-04T03:49:12;98396.53;;;26.93;37.21
67818;BME280;54614;47.576;7.524;2023-06-04T03:51:38;98411.56;;;26.89;37.37
67818;BME280;54614;47.576;7.524;2023-06-04T03:54:04;98413.66;;;26.87;37.13
67818;BME280;54614;47.576;7.524;2023-06-04T03:56:31;98419.19;;;26.92;37.09
67818;BME280;54614;47.576;7.524;2023-06-04T03:58:57;98418.00;;;26.88;37.22
67818;BME280;54614;47.576;7.524;2023-06-04T04:01:24;98421.53;;;26.89;37.11
67818;BME280;54614;47.576;7.524;2023-06-04T04:03:51;98423.28;;;26.83;37.25
67818;BME280;54614;47.576;7.524;2023-06-04T04:06:18;98421.53;;;26.89;37.06
67818;BME280;54614;47.576;7.524;2023-06-04T04:08:44;98414.84;;;26.91;36.92
67818;BME280;54614;47.576;7.524;2023-06-04T04:11:15;98427.38;;;26.86;37.16
67818;BME280;54614;47.576;7.524;2023-06-04T04:13:41;98425.88;;;26.90;37.06
67818;BME280;54614;47.576;7.524;2023-06-04T04:16:07;98419.66;;;26.89;37.21
67818;BME280;54614;47.576;7.524;2023-06-04T04:18:35;98425.50;;;26.86;37.12
67818;BME280;54614;47.576;7.524;2023-06-04T04:21:03;98427.38;;;26.86;37.16
67818;BME280;54614;47.576;7.524;2023-06-04T04:23:30;98430.22;;;26.91;36.76
67818;BME280;54614;47.576;7.524;2023-06-04T04:25:58;98429.97;;;26.92;37.16
67818;BME280;54614;47.576;7.524;2023-06-04T04:28:27;98428.81;;;26.88;37.04
67818;BME280;54614;47.576;7.524;2023-06-04T04:30:57;98432.31;;;26.89;37.05
67818;BME280;54614;47.576;7.524;2023-06-04T04:33:23;98436.06;;;26.88;37.13
67818;BME280;54614;47.576;7.524;2023-06-04T04:35:53;98435.75;;;26.96;36.76
67818;BME280;54614;47.576;7.524;2023-06-04T04:38:21;98435.94;;;26.83;37.11
67818;BME280;54614;47.576;7.524;2023-06-04T04:40:50;98435.84;;;26.89;36.88
67818;BME280;54614;47.576;7.524;2023-06-04T04:43:31;98438.31;;;26.91;36.94
67818;BME280;54614;47.576;7.524;2023-06-04T04:45:58;98434.78;;;26.90;36.88
67818;BME280;54614;47.576;7.524;2023-06-04T04:48:24;98447.09;;;26.86;36.93
67818;BME280;54614;47.576;7.524;2023-06-04T04:50:52;98439.22;;;26.85;36.95
67818;BME280;54614;47.576;7.524;2023-06-04T04:53:18;98446.28;;;26.86;37.02
67818;BME280;54614;47.576;7.524;2023-06-04T04:55:44;98445.00;;;26.88;36.98
67818;BME280;54614;47.576;7.524;2023-06-04T04:58:10;98446.28;;;26.86;37.00
67818;BME280;54614;47.576;7.524;2023-06-04T05:00:36;98445.44;;;26.85;37.00
67818;BME280;54614;47.576;7.524;2023-06-04T05:03:01;98448.38;;;26.84;36.96
67818;BME280;54614;47.576;7.524;2023-06-04T05:05:27;98453.56;;;26.85;36.84
67818;BME280;54614;47.576;7.524;2023-06-04T05:07:53;98445.00;;;26.88;36.81
67818;BME280;54614;47.576;7.524;2023-06-04T05:10:19;98444.63;;;26.85;36.85
67818;BME280;54614;47.576;7.524;2023-06-04T05:12:56;98448.16;;;26.85;36.94
67818;BME280;54614;47.576;7.524;2023-06-04T05:15:22;98445.44;;;26.85;36.90
67818;BME280;54614;47.576;7.524;2023-06-04T05:17:49;98451.69;;;26.86;36.80
67818;BME280;54614;47.576;7.524;2023-06-04T05:20:18;98445.69;;;27.14;37.10
67818;BME280;54614;47.576;7.524;2023-06-04T05:22:44;98450.25;;;27.13;37.91
67818;BME280;54614;47.576;7.524;2023-06-04T05:25:11;98458.03;;;26.91;37.85
67818;BME280;54614;47.576;7.524;2023-06-04T05:27:39;98451.94;;;26.96;38.12
67818;BME280;54614;47.576;7.524;2023-06-04T05:30:06;98456.91;;;26.99;38.09
67818;BME280;54614;47.576;7.524;2023-06-04T05:32:32;98463.75;;;26.83;38.14
67818;BME280;54614;47.576;7.524;2023-06-04T05:34:59;98457.91;;;26.86;37.86
67818;BME280;54614;47.576;7.524;2023-06-04T05:37:26;98463.03;;;26.76;37.73
67818;BME280;54614;47.576;7.524;2023-06-04T05:39:57;98469.59;;;26.80;37.53
67818;BME280;54614;47.576;7.524;2023-06-04T05:42:23;98467.28;;;26.84;37.17
67818;BME280;54614;47.576;7.524;2023-06-04T05:44:50;98477.84;;;26.85;37.35
67818;BME280;54614;47.576;7.524;2023-06-04T05:47:16;98466.59;;;26.88;36.96
67818;BME280;54614;47.576;7.524;2023-06-04T05:49:42;98460.97;;;26.90;37.05
67818;BME280;54614;47.576;7.524;2023-06-04T05:52:08;98459.97;;;27.03;36.94
67818;BME280;54614;47.576;7.524;2023-06-04T05:54:34;98468.81;;;26.91;37.02
67818;BME280;54614;47.576;7.524;2023-06-04T05:57:00;98469.50;;;26.87;37.00
67818;BME280;54614;47.576;7.524;2023-06-04T05:59:26;98470.44;;;26.81;37.28
67818;BME280;54614;47.576;7.524;2023-06-04T06:01:52;98475.38;;;26.84;37.22
67818;BME280;54614;47.576;7.524;2023-06-04T06:04:17;98470.69;;;26.91;36.64
67818;BME280;54614;47.576;7.524;2023-06-04T06:06:43;98468.69;;;26.86;36.96
67818;BME280;54614;47.576;7.524;2023-06-04T06:09:10;98469.38;;;26.82;37.09
67818;BME280;54614;47.576;7.524;2023-06-04T06:11:36;98474.53;;;26.83;36.96
67818;BME280;54614;47.576;7.524;2023-06-04T06:14:02;98478.19;;;26.89;36.95
67818;BME280;54614;47.576;7.524;2023-06-04T06:16:28;98471.97;;;26.88;36.75
67818;BME280;54614;47.576;7.524;2023-06-04T06:18:54;98479.47;;;26.86;36.89
67818;BME280;54614;47.576;7.524;2023-06-04T06:21:20;98479.13;;;26.83;37.04
67818;BME280;54614;47.576;7.524;2023-06-04T06:23:46;98480.03;;;26.77;37.02
67818;BME280;54614;47.576;7.524;2023-06-04T06:26:12;98488.88;;;26.84;36.85
67818;BME280;54614;47.576;7.524;2023-06-04T06:28:38;98491.34;;;26.85;36.90
67818;BME280;54614;47.576;7.524;2023-06-04T06:31:04;98491.69;;;26.89;36.54
67818;BME280;54614;47.576;7.524;2023-06-04T06:33:31;98489.91;;;26.83;36.84
67818;BME280;54614;47.576;7.524;2023-06-04T06:35:57;98491.78;;;26.82;36.94
67818;BME280;54614;47.576;7.524;2023-06-04T06:38:26;98481.81;;;26.83;36.87
67818;BME280;54614;47.576;7.524;2023-06-04T06:40:52;98488.34;;;26.75;37.10
67818;BME280;54614;47.576;7.524;2023-06-04T06:43:18;98491.56;;;26.84;36.97
67818;BME280;54614;47.576;7.524;2023-06-04T06:45:44;98495.53;;;26.81;36.79
67818;BME280;54614;47.576;7.524;2023-06-04T06:48:10;98496.31;;;26.70;36.86
67818;BME280;54614;47.576;7.524;2023-06-04T06:50:35;98495.19;;;26.78;36.71
67818;BME280;54614;47.576;7.524;2023-06-04T06:53:03;98498.25;;;26.81;36.86
67818;BME280;54614;47.576;7.524;2023-06-04T06:55:28;98497.16;;;27.01;36.57
67818;BME280;54614;47.576;7.524;2023-06-04T06:57:54;98499.19;;;26.87;36.60
67818;BME280;54614;47.576;7.524;2023-06-04T07:00:20;98494.59;;;27.06;36.51
67818;BME280;54614;47.576;7.524;2023-06-04T07:02:46;98501.50;;;27.02;36.52
67818;BME280;54614;47.576;7.524;2023-06-04T07:05:13;98495.88;;;27.03;36.44
67818;BME280;54614;47.576;7.524;2023-06-04T07:07:41;98491.09;;;26.87;36.44
67818;BME280;54614;47.576;7.524;2023-06-04T07:10:07;98496.25;;;26.58;36.38
67818;BME280;54614;47.576;7.524;2023-06-04T07:12:33;98497.69;;;26.43;35.84
67818;BME280;54614;47.576;7.524;2023-06-04T07:14:59;98498.41;;;26.31;35.61
67818;BME280;54614;47.576;7.524;2023-06-04T07:17:24;98500.00;;;26.21;35.70
67818;BME280;54614;47.576;7.524;2023-06-04T07:19:50;98488.81;;;26.17;35.56
67818;BME280;54614;47.576;7.524;2023-06-04T07:22:16;98488.75;;;26.24;35.79
67818;BME280;54614;47.576;7.524;2023-06-04T07:24:42;98493.16;;;26.18;36.02
67818;BME280;54614;47.576;7.524;2023-06-04T07:27:15;98494.13;;;26.06;36.07
67818;BME280;54614;47.576;7.524;2023-06-04T07:29:44;98495.72;;;26.13;36.28
67818;BME280;54614;47.576;7.524;2023-06-04T07:32:10;98496.69;;;26.19;36.28
67818;BME280;54614;47.576;7.524;2023-06-04T07:34:38;98499.09;;;26.09;36.69
67818;BME280;54614;47.576;7.524;2023-06-04T07:37:04;98499.22;;;26.14;36.74
67818;BME280;54614;47.576;7.524;2023-06-04T07:39:31;98495.28;;;26.16;36.71
67818;BME280;54614;47.576;7.524;2023-06-04T07:41:57;98498.66;;;26.48;36.65
67818;BME280;54614;47.576;7.524;2023-06-04T07:44:22;98500.22;;;26.56;36.94
67818;BME280;54614;47.576;7.524;2023-06-04T07:46:48;98494.69;;;26.51;37.02
67818;BME280;54614;47.576;7.524;2023-06-04T07:49:14;98496.94;;;26.36;37.03
67818;BME280;54614;47.576;7.524;2023-06-04T07:51:40;98495.91;;;26.37;37.40
67818;BME280;54614;47.576;7.524;2023-06-04T07:54:07;98491.56;;;26.36;37.44
67818;BME280;54614;47.576;7.524;2023-06-04T07:56:33;98483.63;;;26.41;37.39
67818;BME280;54614;47.576;7.524;2023-06-04T07:58:58;98486.38;;;26.52;37.24
67818;BME280;54614;47.576;7.524;2023-06-04T08:01:24;98481.72;;;26.59;37.00
67818;BME280;54614;47.576;7.524;2023-06-04T08:03:50;98493.19;;;26.55;37.08
67818;BME280;54614;47.576;7.524;2023-06-04T08:06:16;98494.75;;;26.62;36.97
67818;BME280;54614;47.576;7.524;2023-06-04T08:08:43;98495.63;;;26.75;36.62
67818;BME280;54614;47.576;7.524;2023-06-04T08:11:15;98496.81;;;26.79;36.70
67818;BME280;54614;47.576;7.524;2023-06-04T08:13:41;98498.84;;;26.83;36.65
67818;BME280;54614;47.576;7.524;2023-06-04T08:16:09;98495.59;;;26.93;36.46
67818;BME280;54614;47.576;7.524;2023-06-04T08:18:39;98489.53;;;26.98;36.68
67818;BME280;54614;47.576;7.524;2023-06-04T08:21:09;98485.25;;;26.90;36.91
67818;BME280;54614;47.576;7.524;2023-06-04T08:23:36;98487.84;;;26.96;36.85
67818;BME280;54614;47.576;7.524;2023-06-04T08:26:02;98482.09;;;26.93;36.83
67818;BME280;54614;47.576;7.524;2023-06-04T08:28:27;98482.63;;;26.83;37.23
67818;BME280;54614;47.576;7.524;2023-06-04T08:30:53;98472.75;;;26.77;37.28
67818;BME280;54614;47.576;7.524;2023-06-04T08:33:19;98478.75;;;26.79;37.70
67818;BME280;54614;47.576;7.524;2023-06-04T08:35:46;98476.66;;;26.81;38.14
67818;BME280;54614;47.576;7.524;2023-06-04T08:38:12;98480.44;;;26.92;37.41
67818;BME280;54614;47.576;7.524;2023-06-04T08:40:37;98487.00;;;26.84;37.49
67818;BME280;54614;47.576;7.524;2023-06-04T08:43:04;98479.63;;;26.91;37.27
67818;BME280;54614;47.576;7.524;2023-06-04T08:45:33;98484.16;;;26.79;37.59
67818;BME280;54614;47.576;7.524;2023-06-04T08:48:05;98479.22;;;26.76;37.59
67818;BME280;54614;47.576;7.524;2023-06-04T08:50:35;98479.97;;;26.65;38.06
67818;BME280;54614;47.576;7.524;2023-06-04T08:53:02;98479.69;;;26.55;38.33
67818;BME280;54614;47.576;7.524;2023-06-04T08:55:29;98481.22;;;26.51;38.05
67818;BME280;54614;47.576;7.524;2023-06-04T08:57:55;98480.66;;;26.60;38.08
67818;BME280;54614;47.576;7.524;2023-06-04T09:00:21;98482.69;;;26.65;38.08
67818;BME280;54614;47.576;7.524;2023-06-04T09:02:49;98481.78;;;26.71;39.33
67818;BME280;54614;47.576;7.524;2023-06-04T09:05:20;98489.03;;;26.71;39.29
67818;BME280;54614;47.576;7.524;2023-06-04T09:07:48;98486.47;;;26.76;39.13
67818;BME280;54614;47.576;7.524;2023-06-04T09:10:19;98488.81;;;26.72;39.20
67818;BME280;54614;47.576;7.524;2023-06-04T09:12:47;98487.50;;;26.93;38.42
67818;BME280;54614;47.576;7.524;2023-06-04T09:15:14;98491.56;;;26.84;38.60
67818;BME280;54614;47.576;7.524;2023-06-04T09:17:40;98469.97;;;26.84;39.05
67818;BME280;54614;47.576;7.524;2023-06-04T09:20:07;98481.13;;;26.87;38.57
67818;BME280;54614;47.576;7.524;2023-06-04T09:22:37;98483.59;;;26.89;38.76
67818;BME280;54614;47.576;7.524;2023-06-04T09:25:06;98480.09;;;26.88;38.89
67818;BME280;54614;47.576;7.524;2023-06-04T09:27:40;98474.53;;;26.83;38.80
67818;BME280;54614;47.576;7.524;2023-06-04T09:30:06;98470.56;;;26.86;38.84
67818;BME280;54614;47.576;7.524;2023-06-04T09:32:34;98474.91;;;26.87;38.76
67818;BME280;54614;47.576;7.524;2023-06-04T09:35:11;98465.91;;;26.93;38.48
67818;BME280;54614;47.576;7.524;2023-06-04T09:37:39;98470.00;;;26.95;38.46
67818;BME280;54614;47.576;7.524;2023-06-04T09:40:07;98461.72;;;26.97;38.58
67818;BME280;54614;47.576;7.524;2023-06-04T09:42:48;98461.72;;;26.97;38.46
67818;BME280;54614;47.576;7.524;2023-06-04T09:45:30;98466.19;;;27.03;38.38
67818;BME280;54614;47.576;7.524;2023-06-04T09:47:58;98469.34;;;27.00;38.52
67818;BME280;54614;47.576;7.524;2023-06-04T09:50:33;98456.81;;;27.06;38.33
67818;BME280;54614;47.576;7.524;2023-06-04T09:53:00;98465.13;;;27.04;38.42
67818;BME280;54614;47.576;7.524;2023-06-04T09:55:27;98459.97;;;27.03;38.63
67818;BME280;54614;47.576;7.524;2023-06-04T09:57:53;98463.63;;;27.08;38.30
67818;BME280;54614;47.576;7.524;2023-06-04T10:00:24;98460.91;;;27.08;38.24
67818;BME280;54614;47.576;7.524;2023-06-04T10:02:58;98457.41;;;27.08;38.12
67818;BME280;54614;47.576;7.524;2023-06-04T10:05:29;98461.06;;;27.13;38.22
67818;BME280;54614;47.576;7.524;2023-06-04T10:08:03;98449.69;;;27.23;37.93
67818;BME280;54614;47.576;7.524;2023-06-04T10:10:36;98450.97;;;27.20;37.98
67818;BME280;54614;47.576;7.524;2023-06-04T10:13:17;98449.00;;;27.27;37.82
67818;BME280;54614;47.576;7.524;2023-06-04T10:15:46;98448.63;;;27.24;37.91
67818;BME280;54614;47.576;7.524;2023-06-04T10:18:14;98444.16;;;27.18;38.17
67818;BME280;54614;47.576;7.524;2023-06-04T10:20:41;98454.72;;;27.19;38.21
67818;BME280;54614;47.576;7.524;2023-06-04T10:23:08;98450.16;;;27.20;38.32
67818;BME280;54614;47.576;7.524;2023-06-04T10:25:37;98444.66;;;27.26;37.95
67818;BME280;54614;47.576;7.524;2023-06-04T10:28:04;98445.81;;;27.31;37.68
67818;BME280;54614;47.576;7.524;2023-06-04T10:30:30;98439.25;;;27.38;37.53
67818;BME280;54614;47.576;7.524;2023-06-04T10:32:57;98444.06;;;27.36;37.76
67818;BME280;54614;47.576;7.524;2023-06-04T10:35:34;98443.34;;;27.29;37.64
67818;BME280;54614;47.576;7.524;2023-06-04T10:38:09;98443.59;;;27.27;37.95
67818;BME280;54614;47.576;7.524;2023-06-04T10:40:36;98443.22;;;27.24;38.13
67818;BME280;54614;47.576;7.524;2023-06-04T10:43:09;98442.28;;;27.18;38.31
67818;BME280;54614;47.576;7.524;2023-06-04T10:45:36;98444.28;;;27.23;38.13
67818;BME280;54614;47.576;7.524;2023-06-04T10:48:04;98441.59;;;27.23;38.21
67818;BME280;54614;47.576;7.524;2023-06-04T10:50:35;98450.28;;;26.95;38.22
67818;BME280;54614;47.576;7.524;2023-06-04T10:53:12;98446.19;;;26.92;38.38
67818;BME280;54614;47.576;7.524;2023-06-04T10:55:49;98452.97;;;26.83;38.38
67818;BME280;54614;47.576;7.524;2023-06-04T10:58:15;98442.88;;;26.90;38.40
67818;BME280;54614;47.576;7.524;2023-06-04T11:00:46;98440.50;;;26.82;38.53
67818;BME280;54614;47.576;7.524;2023-06-04T11:03:15;98435.63;;;26.91;38.36
67818;BME280;54614;47.576;7.524;2023-06-04T11:05:46;98429.69;;;27.01;38.01
67818;BME280;54614;47.576;7.524;2023-06-04T11:08:14;98434.31;;;26.93;38.29
67818;BME280;54614;47.576;7.524;2023-06-04T11:10:43;98433.38;;;26.88;38.43
67818;BME280;54614;47.576;7.524;2023-06-04T11:13:09;98441.69;;;26.86;38.16
67818;BME280;54614;47.576;7.524;2023-06-04T11:15:53;98419.78;;;26.94;38.24
67818;BME280;54614;47.576;7.524;2023-06-04T11:18:22;98427.88;;;26.94;38.07
67818;BME280;54614;47.576;7.524;2023-06-04T11:21:00;98420.38;;;26.96;38.06
67818;BME280;54614;47.576;7.524;2023-06-04T11:23:27;98411.03;;;26.99;37.91
67818;BME280;54614;47.576;7.524;2023-06-04T11:25:53;98416.66;;;27.09;37.90
67818;BME280;54614;47.576;7.524;2023-06-04T11:28:20;98422.91;;;27.10;37.87
67818;BME280;54614;47.576;7.524;2023-06-04T11:31:02;98434.03;;;27.02;38.09
67818;BME280;54614;47.576;7.524;2023-06-04T11:33:42;98421.22;;;26.97;38.21
67818;BME280;54614;47.576;7.524;2023-06-04T11:36:08;98417.84;;;27.02;38.15
67818;BME280;54614;47.576;7.524;2023-06-04T11:38:34;98419.59;;;27.08;38.13
67818;BME280;54614;47.576;7.524;2023-06-04T11:41:02;98412.31;;;27.08;38.20
67818;BME280;54614;47.576;7.524;2023-06-04T11:43:32;98412.09;;;27.10;38.22
67818;BME280;54614;47.576;7.524;2023-06-04T11:45:58;98410.09;;;27.05;38.21
67818;BME280;54614;47.576;7.524;2023-06-04T11:48:24;98416.44;;;27.11;38.04
67818;BME280;54614;47.576;7.524;2023-06-04T11:50:50;98413.16;;;27.09;38.35
67818;BME280;54614;47.576;7.524;2023-06-04T11:53:16;98420.69;;;27.18;38.07
67818;BME280;54614;47.576;7.524;2023-06-04T11:55:43;98398.50;;;27.16;38.11
67818;BME280;54614;47.576;7.524;2023-06-04T11:58:09;98402.97;;;27.22;38.00
67818;BME280;54614;47.576;7.524;2023-06-04T12:00:35;98404.47;;;27.18;38.25
67818;BME280;54614;47.576;7.524;2023-06-04T12:03:01;98405.53;;;27.17;38.06
67818;BME280;54614;47.576;7.524;2023-06-04T12:05:31;98397.31;;;27.12;38.44
67818;BME280;54614;47.576;7.524;2023-06-04T12:08:09;98391.47;;;27.27;38.31
67818;BME280;54614;47.576;7.524;2023-06-04T12:10:43;98390.28;;;27.23;38.42
67818;BME280;54614;47.576;7.524;2023-06-04T12:13:10;98395.09;;;27.21;38.21
67818;BME280;54614;47.576;7.524;2023-06-04T12:15:36;98391.69;;;27.14;38.29
67818;BME280;54614;47.576;7.524;2023-06-04T12:18:02;98395.41;;;27.01;38.74
67818;BME280;54614;47.576;7.524;2023-06-04T12:20:39;98402.94;;;27.11;38.49
67818;BME280;54614;47.576;7.524;2023-06-04T12:23:06;98401.19;;;27.16;38.52
67818;BME280;54614;47.576;7.524;2023-06-04T12:25:34;98388.84;;;27.09;38.69
67818;BME280;54614;47.576;7.524;2023-06-04T12:28:00;98389.44;;;26.99;38.79
67818;BME280;54614;47.576;7.524;2023-06-04T12:30:40;98388.50;;;27.17;38.60
67818;BME280;54614;47.576;7.524;2023-06-04T12:33:06;98383.56;;;27.14;38.49
67818;BME280;54614;47.576;7.524;2023-06-04T12:35:34;98389.56;;;27.16;38.75
67818;BME280;54614;47.576;7.524;2023-06-04T12:38:02;98383.22;;;27.22;38.42
67818;BME280;54614;47.576;7.524;2023-06-04T12:40:28;98371.84;;;27.20;38.48
67818;BME280;54614;47.576;7.524;2023-06-04T12:42:54;98384.75;;;27.29;38.27
67818;BME280;54614;47.576;7.524;2023-06-04T12:45:20;98378.75;;;27.16;38.45
67818;BME280;54614;47.576;7.524;2023-06-04T12:47:48;98382.75;;;27.13;38.71
67818;BME280;54614;47.576;7.524;2023-06-04T12:50:14;98375.59;;;27.19;38.52
67818;BME280;54614;47.576;7.524;2023-06-04T12:52:40;98378.41;;;27.12;38.75
67818;BME280;54614;47.576;7.524;2023-06-04T12:55:07;98378.88;;;27.21;38.65
67818;BME280;54614;47.576;7.524;2023-06-04T12:57:33;98376.53;;;27.24;38.56
67818;BME280;54614;47.576;7.524;2023-06-04T12:59:59;98376.75;;;27.11;38.86
67818;BME280;54614;47.576;7.524;2023-06-04T13:02:25;98370.19;;;27.19;38.50
67818;BME280;54614;47.576;7.524;2023-06-04T13:04:50;98371.25;;;27.18;38.81
67818;BME280;54614;47.576;7.524;2023-06-04T13:07:20;98374.06;;;27.11;38.93